Time;durP1;ratioP1;P1;durP2;ratioP2;P2;SDS_P1;SDS_P2;PMS_P1;PMS_P2;Temp;Humidity;BMP_temperature;BMP_pressure;BME280_temperature;BME280_humidity;BME280_pressure;Samples;Min_cycle;Max_cycle;Signal;HPM_P1;HPM_P2
2024/01/25 00:00:23;;;;;;;;;3.67;3.33;;;;;13.79;74.09;102973.53;5108050;27;46298;-58
2024/01/25 00:02:49;;;;;;;;;4.33;4.33;;;;;13.75;74.66;102971.00;5117272;27;53738;-58
2024/01/25 00:05:14;;;;;;;;;7.33;3.67;;;;;13.72;74.90;102958.59;5120386;27;45303;-58
2024/01/25 00:07:49;;;;;;;;;3.00;3.00;;;;;13.70;75.63;102960.41;5124339;27;69413;-58
2024/01/25 00:10:16;;;;;;;;;8.00;3.33;;;;;13.67;75.22;102949.81;5113353;27;45282;-58
2024/01/25 00:12:42;;;;;;;;;5.00;1.67;;;;;13.63;75.90;102948.16;5121929;27;45406;-58
2024/01/25 00:15:08;;;;;;;;;5.67;2.00;;;;;13.58;75.09;102948.28;5110917;27;45511;-58
2024/01/25 00:17:33;;;;;;;;;1.67;1.33;;;;;13.53;76.23;102945.75;5107139;27;45652;-58
2024/01/25 00:19:59;;;;;;;;;3.67;3.67;;;;;13.48;75.86;102950.34;5111902;27;75274;-58
2024/01/25 00:22:24;;;;;;;;;3.00;1.00;;;;;13.45;75.75;102944.22;5116554;27;45752;-58
2024/01/25 00:24:49;;;;;;;;;1.67;1.67;;;;;13.39;76.31;102932.78;5109111;27;69326;-58
2024/01/25 00:27:15;;;;;;;;;2.67;1.00;;;;;13.37;75.86;102937.28;5108697;27;69094;-57
2024/01/25 00:29:41;;;;;;;;;1.00;1.00;;;;;13.34;76.53;102939.16;5104920;27;52543;-58
2024/01/25 00:32:06;;;;;;;;;0.33;0.33;;;;;13.29;76.26;102930.38;5118807;27;45514;-58
2024/01/25 00:34:32;;;;;;;;;0.67;0.67;;;;;13.26;76.64;102939.34;5104344;27;48659;-58
2024/01/25 00:36:57;;;;;;;;;0.67;0.33;;;;;13.22;76.42;102932.34;5123782;27;45422;-58
2024/01/25 00:39:23;;;;;;;;;2.33;0.00;;;;;13.18;76.59;102928.88;5114905;27;47146;-58
2024/01/25 00:41:51;;;;;;;;;1.67;0.33;;;;;13.17;76.50;102931.59;5121809;27;45474;-58
2024/01/25 00:44:17;;;;;;;;;3.00;1.00;;;;;13.14;75.70;102926.31;5110354;27;45770;-58
2024/01/25 00:46:43;;;;;;;;;0.67;0.67;;;;;13.08;76.01;102925.56;5117604;27;45454;-58
2024/01/25 00:49:08;;;;;;;;;1.00;1.00;;;;;13.05;77.31;102928.31;5115914;27;47276;-58
2024/01/25 00:51:34;;;;;;;;;2.33;1.00;;;;;13.05;76.13;102925.66;5113257;27;45403;-57
2024/01/25 00:54:00;;;;;;;;;2.00;1.00;;;;;13.06;77.08;102913.16;5107230;27;45587;-58
2024/01/25 00:56:25;;;;;;;;;2.00;2.00;;;;;13.04;77.79;102925.69;5113405;27;45348;-58
2024/01/25 00:58:51;;;;;;;;;4.00;1.00;;;;;13.04;77.82;102926.56;5115405;27;46249;-58
2024/01/25 01:01:18;;;;;;;;;4.33;1.00;;;;;13.06;77.93;102921.16;5121686;27;45832;-58
2024/01/25 01:03:44;;;;;;;;;4.00;2.00;;;;;13.05;77.92;102914.97;5115551;27;45390;-58
2024/01/25 01:06:10;;;;;;;;;0.67;0.67;;;;;13.08;77.73;102925.56;5119606;27;45562;-58
2024/01/25 01:08:36;;;;;;;;;1.00;0.33;;;;;13.10;78.03;102919.31;5111534;27;46189;-57
2024/01/25 01:11:01;;;;;;;;;2.67;1.00;;;;;13.08;77.88;102906.84;5115548;27;45601;-58
2024/01/25 01:13:26;;;;;;;;;1.00;1.00;;;;;13.10;78.24;102908.63;5121830;27;45353;-58
2024/01/25 01:15:52;;;;;;;;;1.67;1.67;;;;;13.09;78.12;102902.41;5116010;27;65224;-58
2024/01/25 01:18:17;;;;;;;;;2.33;1.00;;;;;13.10;78.33;102901.47;5110532;27;61020;-58
2024/01/25 01:20:42;;;;;;;;;0.33;0.33;;;;;13.11;78.17;102894.34;5120319;27;45510;-58
2024/01/25 01:23:08;;;;;;;;;4.00;2.33;;;;;13.11;78.48;102899.69;5117768;27;67919;-58
2024/01/25 01:25:33;;;;;;;;;4.00;1.33;;;;;13.10;78.47;102893.44;5115932;27;45593;-58
2024/01/25 01:27:58;;;;;;;;;3.00;1.00;;;;;13.10;79.12;102896.13;5111314;27;72457;-58
2024/01/25 01:30:24;;;;;;;;;4.67;2.67;;;;;13.08;78.79;102895.31;5121027;27;45375;-58
2024/01/25 01:32:49;;;;;;;;;3.67;2.00;;;;;13.10;79.00;102897.94;5112409;27;45587;-58
2024/01/25 01:35:14;;;;;;;;;1.67;1.67;;;;;13.10;78.61;102900.59;5117412;27;69679;-58
2024/01/25 01:37:40;;;;;;;;;1.00;0.67;;;;;13.11;78.75;102905.03;5114214;27;75654;-58
2024/01/25 01:40:05;;;;;;;;;2.33;1.00;;;;;13.10;79.13;102904.13;5112365;27;45516;-58
2024/01/25 01:42:31;;;;;;;;;1.00;1.00;;;;;13.07;78.73;102905.13;5108602;27;45422;-57
2024/01/25 01:44:56;;;;;;;;;1.33;1.33;;;;;13.07;78.63;102902.47;5122045;27;58138;-57
2024/01/25 01:47:22;;;;;;;;;1.00;1.00;;;;;13.09;79.03;102902.41;5115544;27;76895;-57
2024/01/25 01:49:48;;;;;;;;;3.00;2.00;;;;;13.10;78.87;102900.59;5112822;27;53628;-57
2024/01/25 01:52:13;;;;;;;;;3.67;2.00;;;;;13.10;79.46;102906.81;5111770;27;45522;-58
2024/01/25 01:54:39;;;;;;;;;1.67;0.67;;;;;13.09;79.80;102902.41;5112293;27;69812;-58
2024/01/25 01:57:05;;;;;;;;;1.00;1.00;;;;;13.08;79.85;102898.84;5109837;27;68596;-58
2024/01/25 01:59:30;;;;;;;;;3.00;1.67;;;;;13.06;79.82;102900.69;5116941;27;73277;-58
2024/01/25 02:01:56;;;;;;;;;3.00;1.00;;;;;13.06;79.79;102897.13;5111793;27;60074;-58
2024/01/25 02:04:21;;;;;;;;;2.67;1.00;;;;;13.07;80.33;102897.13;5111439;27;45526;-58
2024/01/25 02:06:46;;;;;;;;;4.33;3.00;;;;;13.05;80.46;102904.28;5115090;27;75617;-58
2024/01/25 02:09:13;;;;;;;;;2.00;1.00;;;;;13.05;80.64;102898.06;5116044;27;73162;-58
2024/01/25 02:11:38;;;;;;;;;1.00;1.00;;;;;13.05;80.37;102900.75;5105949;27;45570;-57
2024/01/25 02:14:03;;;;;;;;;3.00;1.00;;;;;13.03;80.59;102902.56;5120087;27;69356;-58
2024/01/25 02:16:29;;;;;;;;;1.33;0.33;;;;;13.02;80.67;102904.38;5137594;27;75006;-57
2024/01/25 02:18:57;;;;;;;;;2.67;0.67;;;;;13.03;80.58;102903.44;5119030;27;72979;-58
2024/01/25 02:21:22;;;;;;;;;1.00;1.00;;;;;13.03;80.46;102900.75;5108605;27;45420;-58
2024/01/25 02:23:47;;;;;;;;;1.67;1.00;;;;;13.04;80.69;102891.84;5120242;27;45461;-58
2024/01/25 02:26:13;;;;;;;;;1.00;1.00;;;;;13.03;81.22;102894.56;5114954;27;69841;-57
2024/01/25 02:28:38;;;;;;;;;5.00;1.00;;;;;13.03;81.17;102894.56;5113893;27;72168;-57
2024/01/25 02:31:04;;;;;;;;;2.00;0.00;;;;;13.02;81.42;102900.81;5111682;27;45439;-58
2024/01/25 02:33:29;;;;;;;;;0.67;0.67;;;;;12.99;81.38;102901.75;5116061;27;45381;-58
2024/01/25 02:35:55;;;;;;;;;2.00;1.00;;;;;13.00;81.80;102902.66;5113324;27;45451;-58
2024/01/25 02:38:20;;;;;;;;;2.00;1.00;;;;;12.98;81.86;102900.00;5118929;27;45364;-58
2024/01/25 02:40:46;;;;;;;;;3.00;1.67;;;;;12.98;81.58;102913.38;5125237;27;45522;-58
2024/01/25 02:43:11;;;;;;;;;2.00;2.00;;;;;12.98;82.19;102909.81;5112763;27;45465;-58
2024/01/25 02:45:36;;;;;;;;;1.33;1.33;;;;;12.97;82.23;102908.06;5113680;27;75720;-57
2024/01/25 02:48:03;;;;;;;;;2.00;2.00;;;;;12.96;82.20;102911.66;5124935;27;45364;-58
2024/01/25 02:50:28;;;;;;;;;3.33;2.67;;;;;12.92;82.03;102905.53;5108867;27;45485;-58
2024/01/25 02:52:54;;;;;;;;;1.33;1.33;;;;;12.91;82.42;102904.63;5115496;27;45603;-58
2024/01/25 02:55:20;;;;;;;;;4.00;2.00;;;;;12.89;81.94;102906.50;5116319;27;46993;-58
2024/01/25 02:57:45;;;;;;;;;4.00;1.67;;;;;12.87;82.63;102896.78;5116964;27;45648;-58
2024/01/25 03:00:11;;;;;;;;;2.67;1.33;;;;;12.85;82.34;102893.25;5118432;27;69324;-58
2024/01/25 03:02:36;;;;;;;;;3.00;1.67;;;;;12.84;82.69;102895.06;5125170;27;45411;-58
2024/01/25 03:05:02;;;;;;;;;4.67;3.00;;;;;12.83;82.76;102879.06;5115727;27;46068;-58
2024/01/25 03:07:27;;;;;;;;;2.00;2.00;;;;;12.82;82.80;102888.88;5117292;27;45311;-58
2024/01/25 03:09:52;;;;;;;;;5.00;3.67;;;;;12.82;82.39;102890.66;5120902;27;66963;-58
2024/01/25 03:12:17;;;;;;;;;2.00;2.00;;;;;12.79;82.58;102896.06;5116899;27;69571;-58
2024/01/25 03:14:43;;;;;;;;;2.00;2.00;;;;;12.80;82.53;102896.06;5115903;27;75667;-58
2024/01/25 03:17:08;;;;;;;;;4.00;1.00;;;;;12.77;82.07;102884.56;5119111;27;73282;-58
2024/01/25 03:19:34;;;;;;;;;2.33;2.00;;;;;12.73;82.59;102900.66;5119053;27;67905;-57
2024/01/25 03:22:01;;;;;;;;;3.00;1.00;;;;;12.70;82.63;102881.19;5121450;27;45483;-58
2024/01/25 03:24:26;;;;;;;;;2.00;2.00;;;;;12.68;82.62;102881.19;5116513;27;45357;-58
2024/01/25 03:26:52;;;;;;;;;1.00;1.00;;;;;12.68;82.91;102883.88;5113813;27;66439;-58
2024/01/25 03:29:17;;;;;;;;;1.00;1.00;;;;;12.68;82.95;102881.19;5109532;27;62913;-58
2024/01/25 03:31:42;;;;;;;;;3.00;2.00;;;;;12.69;82.39;102887.44;5121268;27;70200;-58
2024/01/25 03:34:08;;;;;;;;;3.00;2.00;;;;;12.65;82.59;102880.44;5119376;27;73066;-58
2024/01/25 03:36:33;;;;;;;;;1.67;1.33;;;;;12.63;82.41;102884.91;5111374;27;68678;-58
2024/01/25 03:38:59;;;;;;;;;0.00;0.00;;;;;12.60;82.26;102869.00;5123257;27;45510;-58
2024/01/25 03:41:24;;;;;;;;;2.67;1.00;;;;;12.56;82.58;102878.88;5114496;27;45334;-58
2024/01/25 03:43:50;;;;;;;;;0.67;0.67;;;;;12.55;82.56;102879.78;5115673;27;46016;-58
2024/01/25 03:46:15;;;;;;;;;2.67;1.00;;;;;12.55;82.86;102885.09;5115278;27;45601;-58
2024/01/25 03:48:40;;;;;;;;;0.00;0.00;;;;;12.54;82.57;102878.00;5117002;27;45458;-58
2024/01/25 03:51:06;;;;;;;;;0.00;0.00;;;;;12.53;82.56;102876.28;5114457;27;70281;-58
2024/01/25 03:53:32;;;;;;;;;0.33;0.33;;;;;12.51;82.64;102878.09;5114698;27;45970;-58
2024/01/25 03:55:57;;;;;;;;;1.00;0.00;;;;;12.50;82.76;102874.56;5116995;27;45312;-58
2024/01/25 03:58:22;;;;;;;;;0.00;0.00;;;;;12.51;83.13;102875.44;5125610;27;64832;-58
2024/01/25 04:00:48;;;;;;;;;0.33;0.00;;;;;12.50;82.88;102876.34;5108476;27;69441;-58
2024/01/25 04:03:13;;;;;;;;;0.00;0.00;;;;;12.51;83.09;102875.44;5123402;27;70673;-58
2024/01/25 04:05:41;;;;;;;;;4.00;0.00;;;;;12.51;83.21;102868.28;5125341;27;45636;-58
2024/01/25 04:08:07;;;;;;;;;0.00;0.00;;;;;12.50;83.11;102866.56;5122430;27;45451;-58
2024/01/25 04:10:33;;;;;;;;;0.00;0.00;;;;;12.52;83.15;102869.19;5144895;27;45645;-57
2024/01/25 04:13:00;;;;;;;;;0.67;0.00;;;;;12.54;83.17;102856.66;5119022;27;75555;-58
2024/01/25 04:15:25;;;;;;;;;0.00;0.00;;;;;12.53;83.05;102855.78;5124479;27;45435;-58
2024/01/25 04:17:51;;;;;;;;;0.00;0.00;;;;;12.53;83.23;102853.13;5112838;27;45362;-58
2024/01/25 04:20:16;;;;;;;;;0.00;0.00;;;;;12.54;83.27;102857.56;5121079;27;45406;-58
2024/01/25 04:22:41;;;;;;;;;0.00;0.00;;;;;12.54;83.63;102872.69;5127710;27;74566;-58
2024/01/25 04:25:07;;;;;;;;;0.00;0.00;;;;;12.53;83.69;102874.47;5112767;27;45251;-58
2024/01/25 04:27:32;;;;;;;;;1.33;1.33;;;;;12.54;83.58;102878.91;5117011;27;45343;-58
2024/01/25 04:29:58;;;;;;;;;0.33;0.33;;;;;12.54;83.89;102873.56;5115714;27;45320;-58
2024/01/25 04:32:23;;;;;;;;;2.00;1.00;;;;;12.55;83.97;102879.78;5123496;27;50858;-58
2024/01/25 04:34:48;;;;;;;;;0.00;0.00;;;;;12.54;84.05;102872.69;5109425;27;67572;-58
2024/01/25 04:37:14;;;;;;;;;1.00;1.00;;;;;12.54;84.07;102865.56;5116384;27;45599;-58
2024/01/25 04:39:39;;;;;;;;;1.00;1.00;;;;;12.54;84.43;102857.56;5110432;27;45283;-58
2024/01/25 04:42:05;;;;;;;;;1.00;1.00;;;;;12.55;84.51;102861.09;5113801;27;45349;-58
2024/01/25 04:44:30;;;;;;;;;1.00;1.00;;;;;12.55;84.48;102864.66;5112435;27;45424;-58
2024/01/25 04:46:56;;;;;;;;;1.33;0.67;;;;;12.55;84.68;102856.66;5111139;27;45405;-58
2024/01/25 04:49:21;;;;;;;;;2.33;1.67;;;;;12.56;85.08;102857.50;5109187;27;45430;-58
2024/01/25 04:51:47;;;;;;;;;4.33;2.67;;;;;12.58;85.07;102858.34;5115881;27;57068;-58
2024/01/25 04:54:15;;;;;;;;;3.00;3.00;;;;;12.58;85.05;102848.53;5119317;27;46032;-58
2024/01/25 04:56:40;;;;;;;;;5.67;3.67;;;;;12.61;85.09;102854.72;5120615;27;45611;-58
2024/01/25 04:59:06;;;;;;;;;5.33;4.33;;;;;12.60;85.20;102858.31;5125135;27;45380;-58
2024/01/25 05:01:31;;;;;;;;;3.67;3.00;;;;;12.62;85.35;102851.13;5116864;27;45772;-58
2024/01/25 05:03:56;;;;;;;;;7.33;6.00;;;;;12.63;85.81;102847.53;5105626;27;73203;-58
2024/01/25 05:06:22;;;;;;;;;7.67;5.67;;;;;12.62;85.38;102840.44;5124946;27;69538;-58
2024/01/25 05:08:47;;;;;;;;;8.33;5.00;;;;;12.61;85.29;102841.38;5119829;27;66334;-58
2024/01/25 05:11:12;;;;;;;;;5.00;4.00;;;;;12.61;85.41;102844.06;5118123;27;69636;-58
2024/01/25 05:13:38;;;;;;;;;4.00;4.00;;;;;12.60;85.01;102835.16;5119440;27;72256;-58
2024/01/25 05:16:03;;;;;;;;;6.33;4.00;;;;;12.60;85.10;102832.47;5122093;27;67138;-58
2024/01/25 05:18:28;;;;;;;;;7.00;5.00;;;;;12.57;84.97;102832.56;5119781;27;45339;-58
2024/01/25 05:20:54;;;;;;;;;5.67;3.00;;;;;12.57;85.13;102827.22;5118015;27;74243;-58
2024/01/25 05:23:19;;;;;;;;;5.33;4.33;;;;;12.58;85.08;102826.31;5124330;27;45693;-58
2024/01/25 05:25:45;;;;;;;;;4.67;4.67;;;;;12.58;85.12;102821.84;5117814;27;68459;-58
2024/01/25 05:28:10;;;;;;;;;6.33;5.00;;;;;12.58;85.48;102824.53;5097460;27;66145;-58
2024/01/25 05:30:36;;;;;;;;;7.00;6.00;;;;;12.57;85.47;102821.91;5114693;27;45980;-58
2024/01/25 05:33:01;;;;;;;;;5.00;5.00;;;;;12.55;85.79;102815.72;5118920;27;45453;-57
2024/01/25 05:35:26;;;;;;;;;6.33;6.00;;;;;12.56;85.71;102814.78;5117595;27;45405;-57
2024/01/25 05:37:52;;;;;;;;;9.33;6.00;;;;;12.55;85.33;102810.38;5118162;27;63450;-57
2024/01/25 05:40:17;;;;;;;;;6.00;5.33;;;;;12.55;85.61;102805.94;5118810;27;45432;-57
2024/01/25 05:42:42;;;;;;;;;5.67;5.00;;;;;12.56;86.06;102810.31;5126603;27;46892;-57
2024/01/25 05:45:08;;;;;;;;;5.67;5.67;;;;;12.57;85.83;102806.75;5119384;27;66648;-57
2024/01/25 05:47:34;;;;;;;;;7.00;7.00;;;;;12.57;86.06;102803.22;5106676;27;45597;-58
2024/01/25 05:49:59;;;;;;;;;7.00;6.67;;;;;12.58;86.27;102811.16;5119240;27;46254;-58
2024/01/25 05:52:25;;;;;;;;;9.33;8.67;;;;;12.60;86.57;102813.78;5118270;27;58294;-57
2024/01/25 05:54:50;;;;;;;;;11.67;7.67;;;;;12.60;86.65;102824.47;5110155;27;48758;-58
2024/01/25 05:57:17;;;;;;;;;9.33;7.00;;;;;12.58;86.63;102826.31;5117335;27;69343;-58
2024/01/25 05:59:42;;;;;;;;;10.00;9.00;;;;;12.56;86.23;102834.34;5115213;27;46908;-57
2024/01/25 06:02:08;;;;;;;;;6.00;6.00;;;;;12.57;86.55;102833.44;5130631;27;45352;-57
2024/01/25 06:04:34;;;;;;;;;6.67;6.00;;;;;12.58;86.98;102832.53;5116081;27;45230;-57
2024/01/25 06:06:59;;;;;;;;;7.67;6.67;;;;;12.60;87.04;102829.81;5113370;27;67519;-57
2024/01/25 06:09:24;;;;;;;;;7.00;5.33;;;;;12.60;86.88;102827.16;5119748;27;75494;-58
2024/01/25 06:11:50;;;;;;;;;7.00;7.00;;;;;12.61;87.19;102825.38;5119424;27;45398;-57
2024/01/25 06:14:15;;;;;;;;;10.00;7.67;;;;;12.60;87.08;102821.81;5120312;27;45318;-58
2024/01/25 06:16:41;;;;;;;;;11.00;10.67;;;;;12.63;87.56;102820.84;5124427;27;56686;-58
2024/01/25 06:19:07;;;;;;;;;10.33;9.00;;;;;12.63;87.81;102823.50;5106016;27;46034;-58
2024/01/25 06:21:35;;;;;;;;;13.33;11.00;;;;;12.62;87.83;102828.00;5119029;27;45473;-58
2024/01/25 06:24:01;;;;;;;;;9.00;8.33;;;;;12.62;87.89;102830.66;5117335;27;45660;-59
2024/01/25 06:26:26;;;;;;;;;9.33;8.67;;;;;12.62;87.72;102822.66;5119785;27;45986;-59
2024/01/25 06:28:52;;;;;;;;;9.67;9.00;;;;;12.62;88.95;102828.00;5121327;27;46202;-59
2024/01/25 06:31:17;;;;;;;;;12.00;11.00;;;;;12.63;88.52;102818.19;5117844;27;72010;-59
2024/01/25 06:33:46;;;;;;;;;13.00;12.33;;;;;12.60;88.19;102816.47;5119421;27;54915;-59
2024/01/25 06:36:13;;;;;;;;;16.00;13.00;;;;;12.61;88.89;102814.69;5117465;27;45594;-59
2024/01/25 06:38:39;;;;;;;;;15.33;13.00;;;;;12.54;89.82;102816.63;5128952;27;45490;-59
2024/01/25 06:41:04;;;;;;;;;18.67;12.67;;;;;12.50;89.40;102818.50;5120011;27;45358;-59
2024/01/25 06:43:29;;;;;;;;;12.33;10.33;;;;;12.49;88.90;102824.75;5130351;27;50880;-58
2024/01/25 06:45:55;;;;;;;;;12.33;11.67;;;;;12.54;89.18;102830.84;5122114;27;45540;-58
2024/01/25 06:48:20;;;;;;;;;4.33;4.00;;;;;12.56;89.38;102823.66;5110644;27;69032;-59
2024/01/25 06:50:46;;;;;;;;;12.67;11.00;;;;;12.57;90.02;102830.75;5126000;27;73176;-59
2024/01/25 06:53:11;;;;;;;;;15.67;12.00;;;;;12.54;89.33;102817.50;5125705;27;45458;-59
2024/01/25 06:55:36;;;;;;;;;12.00;10.33;;;;;12.54;89.49;102808.59;5126668;27;46282;-59
2024/01/25 06:58:02;;;;;;;;;13.33;10.67;;;;;12.55;89.26;102797.03;5116619;27;73749;-59
2024/01/25 07:00:27;;;;;;;;;11.67;11.67;;;;;12.55;89.50;102800.59;5118814;27;50795;-59
2024/01/25 07:02:52;;;;;;;;;15.00;13.00;;;;;12.55;89.79;102800.59;5124758;27;46592;-58
2024/01/25 07:05:18;;;;;;;;;13.33;10.33;;;;;12.54;90.18;102793.50;5116418;27;45296;-58
2024/01/25 07:07:43;;;;;;;;;14.33;11.67;;;;;12.54;89.79;102804.16;5120525;27;48216;-58
2024/01/25 07:10:08;;;;;;;;;11.67;11.00;;;;;12.56;90.05;102799.66;5125563;27;45329;-59
2024/01/25 07:12:34;;;;;;;;;13.00;11.00;;;;;12.60;89.91;102800.44;5116927;27;62528;-58
2024/01/25 07:14:59;;;;;;;;;14.33;10.33;;;;;12.63;89.68;102807.50;5125788;27;47120;-58
2024/01/25 07:17:24;;;;;;;;;10.00;9.33;;;;;12.64;89.70;102804.78;5132820;27;64529;-58
2024/01/25 07:19:50;;;;;;;;;12.67;9.67;;;;;12.67;89.48;102802.03;5121704;27;69796;-58
2024/01/25 07:22:17;;;;;;;;;10.33;9.00;;;;;12.70;89.15;102795.75;5118572;27;69415;-58
2024/01/25 07:24:42;;;;;;;;;10.00;10.00;;;;;12.71;89.43;102795.69;5122375;27;45498;-59
2024/01/25 07:27:08;;;;;;;;;11.33;9.00;;;;;12.69;89.56;102802.88;5122024;27;47011;-58
2024/01/25 07:29:33;;;;;;;;;11.33;11.33;;;;;12.69;89.73;102804.66;5149338;27;45459;-58
2024/01/25 07:31:58;;;;;;;;;11.67;10.00;;;;;12.72;89.56;102810.81;5114238;27;66815;-58
2024/01/25 07:34:24;;;;;;;;;12.67;12.33;;;;;12.76;89.80;102808.03;5127647;27;45515;-58
2024/01/25 07:36:49;;;;;;;;;15.67;12.33;;;;;12.78;89.84;102812.44;5114284;27;73044;-58
2024/01/25 07:39:14;;;;;;;;;13.33;9.33;;;;;12.78;89.87;102804.41;5124588;27;65976;-58
2024/01/25 07:41:40;;;;;;;;;11.00;9.67;;;;;12.81;89.42;102806.13;5123355;27;45293;-59
2024/01/25 07:44:05;;;;;;;;;12.00;10.67;;;;;12.83;89.61;102801.63;5123842;27;68469;-58
2024/01/25 07:46:31;;;;;;;;;12.00;11.67;;;;;12.82;89.68;102792.72;5123461;27;46978;-59
2024/01/25 07:48:56;;;;;;;;;12.00;10.00;;;;;12.79;90.08;102798.16;5130433;27;46259;-58
2024/01/25 07:51:22;;;;;;;;;14.33;9.67;;;;;12.79;89.76;102786.59;5122484;27;64733;-58
2024/01/25 07:53:47;;;;;;;;;15.00;12.67;;;;;12.80;89.48;102786.56;5124133;27;45361;-58
2024/01/25 07:56:12;;;;;;;;;10.00;10.00;;;;;12.84;89.77;102787.34;5109686;27;58260;-58
2024/01/25 07:58:38;;;;;;;;;10.00;10.00;;;;;12.85;90.03;102794.44;5116942;27;73225;-58
2024/01/25 08:01:05;;;;;;;;;13.00;11.33;;;;;12.86;89.93;102794.38;5124792;27;45274;-58
2024/01/25 08:03:31;;;;;;;;;13.67;11.33;;;;;12.89;89.90;102796.09;5123564;27;45377;-58
2024/01/25 08:05:56;;;;;;;;;8.33;8.33;;;;;12.90;89.79;102798.72;5118989;27;46117;-59
2024/01/25 08:08:21;;;;;;;;;13.67;12.33;;;;;12.92;89.79;102790.69;5120621;27;73061;-57
2024/01/25 08:10:47;;;;;;;;;11.67;11.00;;;;;12.94;90.03;102799.50;5123327;27;45696;-58
2024/01/25 08:13:13;;;;;;;;;11.33;10.00;;;;;12.92;89.75;102801.38;5119024;27;45842;-57
2024/01/25 08:15:38;;;;;;;;;10.33;10.00;;;;;12.91;90.11;102799.63;5120339;27;45919;-57
2024/01/25 08:18:04;;;;;;;;;11.67;10.00;;;;;12.94;90.03;102798.66;5121497;27;45269;-57
2024/01/25 08:20:29;;;;;;;;;5.33;4.67;;;;;12.95;90.17;102798.59;5122936;27;45476;-57
2024/01/25 08:22:54;;;;;;;;;12.00;9.00;;;;;12.97;90.48;102791.44;5125447;27;70360;-57
2024/01/25 08:25:20;;;;;;;;;11.00;11.00;;;;;12.98;90.10;102797.63;5129116;27;72404;-57
2024/01/25 08:27:45;;;;;;;;;8.00;8.00;;;;;13.02;89.96;102794.84;5155653;27;46785;-57
2024/01/25 08:30:11;;;;;;;;;11.00;9.33;;;;;13.06;90.22;102791.16;5125527;27;45427;-57
2024/01/25 08:32:36;;;;;;;;;13.00;11.00;;;;;13.11;89.68;102793.69;5118046;27;45404;-57
2024/01/25 08:35:02;;;;;;;;;14.00;11.00;;;;;13.16;89.73;102793.56;5117907;27;75313;-57
2024/01/25 08:37:27;;;;;;;;;10.00;8.33;;;;;13.20;89.27;102795.22;5119356;27;70189;-57
2024/01/25 08:39:52;;;;;;;;;9.00;7.67;;;;;13.21;88.85;102800.50;5119020;27;62629;-58
2024/01/25 08:42:18;;;;;;;;;11.00;10.67;;;;;13.28;88.75;102800.34;5113692;27;69456;-58
2024/01/25 08:44:48;;;;;;;;;10.33;9.67;;;;;13.31;88.59;102801.13;5109614;27;45888;-58
2024/01/25 08:47:15;;;;;;;;;9.67;7.00;;;;;13.35;88.29;102805.47;5120129;27;45417;-58
2024/01/25 08:49:41;;;;;;;;;9.67;9.33;;;;;13.40;88.36;102808.00;5130907;27;45529;-58
2024/01/25 08:52:06;;;;;;;;;7.00;7.00;;;;;13.42;88.27;102810.66;5118967;27;45789;-58
2024/01/25 08:54:32;;;;;;;;;11.00;9.00;;;;;13.42;87.68;102810.66;5115087;27;47231;-59
2024/01/25 08:56:57;;;;;;;;;14.00;9.67;;;;;13.46;87.83;102809.63;5109963;27;45428;-58
2024/01/25 08:59:23;;;;;;;;;13.00;10.00;;;;;13.51;88.10;102816.59;5107217;27;68110;-58
2024/01/25 09:01:48;;;;;;;;;8.33;7.67;;;;;13.55;87.24;102812.03;5121258;27;45461;-58
2024/01/25 09:04:13;;;;;;;;;8.00;7.33;;;;;13.59;86.96;102820.84;5118939;27;75661;-58
2024/01/25 09:06:39;;;;;;;;;8.67;7.00;;;;;13.61;86.95;102813.63;5127884;27;71687;-58
2024/01/25 09:09:05;;;;;;;;;7.00;7.00;;;;;13.64;86.32;102811.75;5120839;27;45201;-58
2024/01/25 09:11:30;;;;;;;;;5.67;5.67;;;;;13.62;85.80;102813.56;5124148;27;45445;-58
2024/01/25 09:13:56;;;;;;;;;6.33;6.00;;;;;13.62;86.10;102815.38;5124911;27;45846;-58
2024/01/25 09:16:22;;;;;;;;;7.00;7.00;;;;;13.61;86.29;102813.63;5133882;27;45693;-58
2024/01/25 09:18:47;;;;;;;;;5.00;5.00;;;;;13.61;86.29;102814.53;5113568;27;45412;-58
2024/01/25 09:21:13;;;;;;;;;7.33;6.67;;;;;13.63;86.18;102809.13;5117853;27;45637;-58
2024/01/25 09:23:39;;;;;;;;;5.67;5.67;;;;;13.65;86.59;102813.50;5112095;27;74185;-58
2024/01/25 09:26:04;;;;;;;;;6.33;5.67;;;;;13.68;86.18;102810.72;5121589;27;45753;-58
2024/01/25 09:28:30;;;;;;;;;11.00;7.00;;;;;13.71;86.26;102804.41;5119222;27;45436;-58
2024/01/25 09:30:55;;;;;;;;;10.00;5.67;;;;;13.73;86.05;102811.44;5117306;27;63863;-58
2024/01/25 09:33:21;;;;;;;;;7.33;6.00;;;;;13.76;86.26;102807.81;5119446;27;45512;-58
2024/01/25 09:35:47;;;;;;;;;6.00;6.00;;;;;13.78;85.59;102810.44;5118617;27;56660;-59
2024/01/25 09:38:13;;;;;;;;;6.00;5.00;;;;;13.80;85.50;102795.22;5118827;27;45401;-58
2024/01/25 09:40:38;;;;;;;;;4.00;4.00;;;;;13.79;85.28;102804.16;5119394;27;45295;-58
2024/01/25 09:43:03;;;;;;;;;5.00;5.00;;;;;13.79;85.47;102801.47;5118668;27;66719;-58
2024/01/25 09:45:31;;;;;;;;;6.00;5.00;;;;;13.83;85.63;102804.03;5118011;27;45299;-58
2024/01/25 09:47:56;;;;;;;;;5.00;4.00;;;;;13.88;85.99;102806.53;5121727;27;45223;-58
2024/01/25 09:50:21;;;;;;;;;5.00;5.00;;;;;13.93;85.39;102803.72;5119251;27;45700;-57
2024/01/25 09:52:55;;;;;;;;;4.00;3.00;;;;;13.93;84.38;102801.91;5117116;27;73076;-57
2024/01/25 09:55:24;;;;;;;;;4.33;4.33;;;;;13.90;83.87;102805.56;5119587;27;45389;-57
2024/01/25 09:57:54;;;;;;;;;3.00;3.00;;;;;13.86;84.35;102809.25;5119399;27;45436;-57
2024/01/25 10:00:20;;;;;;;;;0.67;0.67;;;;;13.87;84.44;102811.03;5117871;27;45339;-57
2024/01/25 10:02:48;;;;;;;;;3.67;3.33;;;;;13.88;84.44;102807.44;5117988;27;46068;-57
2024/01/25 10:05:14;;;;;;;;;3.33;2.00;;;;;13.90;84.67;102812.72;5122895;27;45503;-57
2024/01/25 10:07:40;;;;;;;;;5.67;3.00;;;;;13.93;84.35;102819.78;5126346;27;45644;-57
2024/01/25 10:10:06;;;;;;;;;2.67;2.67;;;;;13.96;84.65;102817.88;5118452;27;45350;-57
2024/01/25 10:12:32;;;;;;;;;5.00;2.67;;;;;14.01;84.16;102820.41;5119445;27;46866;-57
2024/01/25 10:14:58;;;;;;;;;4.67;4.67;;;;;14.04;84.68;102822.97;5121641;27;45439;-58
2024/01/25 10:17:24;;;;;;;;;4.00;2.67;;;;;14.06;83.78;102826.47;5117582;27;45416;-58
2024/01/25 10:19:49;;;;;;;;;3.00;3.00;;;;;14.06;83.47;102823.78;5125382;27;45542;-58
2024/01/25 10:22:14;;;;;;;;;2.67;2.67;;;;;14.12;84.05;102822.72;5122778;27;49479;-58
2024/01/25 10:24:40;;;;;;;;;8.67;5.67;;;;;14.22;83.94;102825.06;5124216;27;45434;-58
2024/01/25 10:27:07;;;;;;;;;5.67;5.33;;;;;14.34;83.55;102822.88;5121987;27;53732;-58
2024/01/25 10:29:34;;;;;;;;;9.33;6.67;;;;;14.44;83.50;102823.44;5121305;27;45437;-58
2024/01/25 10:32:00;;;;;;;;;5.67;5.33;;;;;14.53;83.40;102823.13;5123160;27;45497;-58
2024/01/25 10:34:26;;;;;;;;;5.00;5.00;;;;;14.61;82.11;102818.38;5143450;27;45520;-58
2024/01/25 10:36:52;;;;;;;;;7.33;6.33;;;;;14.67;82.13;102823.53;5121290;27;68502;-58
2024/01/25 10:39:18;;;;;;;;;7.33;7.00;;;;;14.74;82.23;102817.97;5115835;27;45423;-58
2024/01/25 10:41:50;;;;;;;;;7.33;6.33;;;;;14.78;81.87;102814.25;5115087;27;46994;-58
2024/01/25 10:44:15;;;;;;;;;6.00;5.00;;;;;14.82;81.36;102811.44;5149433;27;45587;-58
2024/01/25 10:46:41;;;;;;;;;11.67;6.33;;;;;14.85;81.04;102811.31;5116897;27;45344;-57
2024/01/25 10:49:07;;;;;;;;;5.67;5.67;;;;;14.88;81.48;102804.97;5118093;27;45629;-58
2024/01/25 10:51:33;;;;;;;;;5.67;5.67;;;;;14.96;80.96;102810.91;5117876;27;45404;-58
2024/01/25 10:53:59;;;;;;;;;8.67;8.67;;;;;15.03;80.80;102814.22;5108251;27;45348;-58
2024/01/25 10:56:25;;;;;;;;;8.33;5.67;;;;;15.08;81.25;102809.56;5106705;27;45346;-58
2024/01/25 10:58:50;;;;;;;;;6.00;4.67;;;;;15.11;80.30;102805.91;5126933;27;45441;-58
2024/01/25 11:01:17;;;;;;;;;3.00;3.00;;;;;15.11;79.99;102803.22;5125311;27;74599;-58
2024/01/25 11:03:46;;;;;;;;;6.00;4.33;;;;;15.14;79.92;102806.66;5119369;27;45377;-58
2024/01/25 11:06:12;;;;;;;;;3.00;3.00;;;;;15.22;79.58;102806.38;5121183;27;45443;-58
2024/01/25 11:08:38;;;;;;;;;7.00;5.67;;;;;15.28;78.84;102799.91;5124225;27;59650;-58
2024/01/25 11:11:08;;;;;;;;;5.00;4.33;;;;;15.36;79.00;102787.94;5117668;27;45564;-58
2024/01/25 11:13:34;;;;;;;;;7.33;5.33;;;;;15.47;78.92;102786.66;5128399;27;45817;-57